Castalia, North Carolina
Current Conditions -  °F | °C
As of 2:35 PM on Thursday 23 Oct 2014 (Local Time) from KLHZ Reporting Station
Clear Clear  
Wind Chill: 64°   Ceiling: Unl
Heat Index: 64°   Visibility: 10mi
Dew Point: 45°   Wind: 6mph
Humidity: 49%   Direction: 290°WNW
Pressure: 29.92"   Gusts: NA
Location:  36.08°N, 78.06°W
Report Text: KLHZ 231835Z AUTO 29005KT 10SM CLR 18/07 A2992 RMK AO2
Loading
Personal Weather Stations






























Interactive Weather Map
Tropical Storm Tracking
New forecast layout! Learn more

10-Day Weather Forecast

Advertisements
Track Severe Weather on mobile